createdAt,value
2017-03-27T00:00:39.236Z,4.46
2017-03-27T00:01:34.254Z,4.52
2017-03-27T00:02:35.231Z,4.43
2017-03-27T00:03:35.311Z,4.42
2017-03-27T00:04:41.347Z,4.38
2017-03-27T00:05:36.317Z,4.34
2017-03-27T00:06:31.351Z,4.30
2017-03-27T00:07:32.380Z,4.26
2017-03-27T00:08:32.434Z,4.19
2017-03-27T00:09:32.476Z,4.16
2017-03-27T00:10:27.443Z,4.18
2017-03-27T00:11:21.509Z,4.24
2017-03-27T00:12:10.541Z,4.28
2017-03-27T00:13:10.570Z,4.26
2017-03-27T00:14:04.647Z,4.25
2017-03-27T00:15:04.661Z,4.22
2017-03-27T00:16:04.655Z,4.20
2017-03-27T00:16:59.714Z,4.10
2017-03-27T00:17:53.689Z,4.04
2017-03-27T00:18:53.693Z,3.94
2017-03-27T00:19:48.737Z,3.94
2017-03-27T00:20:44.488Z,3.95
2017-03-27T00:21:43.858Z,3.94
2017-03-27T00:22:38.797Z,3.92
2017-03-27T00:23:33.910Z,3.90
2017-03-27T00:24:22.925Z,3.97
2017-03-27T00:25:16.945Z,4.03
2017-03-27T00:26:11.999Z,4.02
2017-03-27T00:27:00.054Z,3.94
2017-03-27T00:27:48.064Z,3.95
2017-03-27T00:28:42.077Z,3.89
2017-03-27T00:29:36.059Z,3.86
2017-03-27T00:30:25.205Z,3.84
2017-03-27T00:31:19.497Z,3.90
2017-03-27T00:32:08.233Z,3.88
2017-03-27T00:33:03.281Z,3.86
2017-03-27T00:34:03.258Z,3.80
2017-03-27T00:34:58.357Z,3.76
2017-03-27T00:35:53.351Z,3.68
2017-03-27T00:36:42.422Z,3.58
2017-03-27T00:37:37.433Z,3.55
2017-03-27T00:38:37.449Z,3.52
2017-03-27T00:39:37.439Z,3.50
2017-03-27T00:40:32.493Z,3.46
2017-03-27T00:41:27.211Z,3.46
2017-03-27T00:42:26.549Z,3.42
2017-03-27T00:43:21.565Z,3.36
2017-03-27T00:44:16.624Z,3.28
2017-03-27T00:45:16.626Z,3.27
2017-03-27T00:46:11.653Z,3.26
2017-03-27T00:47:06.715Z,3.26
2017-03-27T00:48:07.836Z,3.24
2017-03-27T00:49:01.758Z,3.19
2017-03-27T00:49:55.722Z,3.15
2017-03-27T00:50:49.812Z,3.08
2017-03-27T00:51:37.830Z,3.03
2017-03-27T00:52:32.883Z,2.97
2017-03-27T00:53:21.015Z,2.92
2017-03-27T00:54:10.018Z,2.90
2017-03-27T00:55:09.965Z,2.82
2017-03-27T00:55:59.111Z,2.80
2017-03-27T00:56:47.066Z,2.76
2017-03-27T00:57:41.051Z,2.74
2017-03-27T00:58:41.441Z,2.70
2017-03-27T00:59:30.139Z,2.70
2017-03-27T01:00:24.168Z,2.68
2017-03-27T01:01:19.263Z,2.64
2017-03-27T01:02:07.269Z,2.68
2017-03-27T01:03:02.296Z,2.70
2017-03-27T01:03:51.424Z,2.68
2017-03-27T01:04:40.324Z,2.64
2017-03-27T01:05:34.368Z,2.63
2017-03-27T01:06:28.428Z,2.58
2017-03-27T01:07:22.446Z,2.54
2017-03-27T01:08:10.472Z,2.52
2017-03-27T01:08:59.584Z,2.51
2017-03-27T01:09:48.548Z,2.49
2017-03-27T01:10:42.550Z,2.48
2017-03-27T01:11:36.610Z,2.48
2017-03-27T01:12:25.658Z,2.46
2017-03-27T01:13:20.717Z,2.43
2017-03-27T01:14:08.738Z,2.40
2017-03-27T01:14:57.701Z,2.37
2017-03-27T01:15:51.780Z,2.32
2017-03-27T01:16:39.792Z,2.29
2017-03-27T01:17:28.878Z,2.28
2017-03-27T01:18:28.834Z,2.24
2017-03-27T01:19:23.145Z,2.30
2017-03-27T01:20:22.939Z,2.33
2017-03-27T01:21:10.973Z,2.36
2017-03-27T01:22:06.014Z,2.36
2017-03-27T01:22:59.999Z,2.37
2017-03-27T01:24:00.044Z,2.38
2017-03-27T01:24:48.111Z,2.36
2017-03-27T01:25:42.159Z,2.38
2017-03-27T01:26:37.162Z,2.43
2017-03-27T01:27:31.177Z,2.44
2017-03-27T01:28:31.245Z,2.48
2017-03-27T01:29:26.244Z,2.54
2017-03-27T01:30:32.279Z,2.60
2017-03-27T01:31:27.290Z,2.64
2017-03-27T01:32:21.421Z,2.68
2017-03-27T01:33:21.331Z,2.66
2017-03-27T01:34:21.374Z,2.63
2017-03-27T01:35:16.326Z,2.58
2017-03-27T01:36:10.454Z,2.56
2017-03-27T01:37:10.458Z,2.56
2017-03-27T01:38:05.459Z,2.54
2017-03-27T01:39:00.479Z,2.56
2017-03-27T01:40:01.496Z,2.54
2017-03-27T01:41:01.508Z,2.54
2017-03-27T01:42:01.634Z,2.52
2017-03-27T01:43:01.558Z,2.54
2017-03-27T01:44:02.622Z,2.52
2017-03-27T01:45:03.648Z,2.52
2017-03-27T01:45:57.699Z,2.48
2017-03-27T01:46:57.722Z,2.46
2017-03-27T01:47:52.749Z,2.45
2017-03-27T01:48:47.772Z,2.39
2017-03-27T01:49:47.789Z,2.36
2017-03-27T01:50:42.779Z,2.40
2017-03-27T01:51:37.863Z,2.42
2017-03-27T01:52:37.863Z,2.42
2017-03-27T01:53:32.932Z,2.44
2017-03-27T01:54:27.948Z,2.41
2017-03-27T01:55:28.941Z,2.38
2017-03-27T01:56:28.950Z,2.36
2017-03-27T01:57:29.025Z,2.36
2017-03-27T01:58:29.079Z,2.38
2017-03-27T01:59:30.112Z,2.41
2017-03-27T02:00:31.062Z,2.39
2017-03-27T02:01:25.139Z,2.40
2017-03-27T02:02:25.192Z,2.42
2017-03-27T02:03:20.205Z,2.41
2017-03-27T02:04:20.188Z,2.39
2017-03-27T02:05:20.242Z,2.36
2017-03-27T02:06:20.214Z,2.34
2017-03-27T02:07:14.242Z,2.34
2017-03-27T02:08:09.276Z,2.36
2017-03-27T02:09:09.321Z,2.35
2017-03-27T02:10:03.330Z,2.38
2017-03-27T02:10:58.402Z,2.42
2017-03-27T02:11:53.463Z,2.49
2017-03-27T02:12:47.422Z,2.54
2017-03-27T02:13:42.538Z,2.56
2017-03-27T02:14:43.459Z,2.58
2017-03-27T02:15:37.570Z,2.62
2017-03-27T02:16:26.520Z,2.66
2017-03-27T02:17:20.531Z,2.68
2017-03-27T02:18:08.642Z,2.68
2017-03-27T02:19:02.611Z,2.63
2017-03-27T02:19:51.725Z,2.60
2017-03-27T02:20:39.720Z,2.58
2017-03-27T02:21:34.760Z,2.52
2017-03-27T02:22:22.787Z,2.51
2017-03-27T02:23:10.994Z,2.48
2017-03-27T02:23:58.886Z,2.42
2017-03-27T02:24:46.955Z,2.38
2017-03-27T02:25:34.928Z,2.34
2017-03-27T02:26:22.940Z,2.32
2017-03-27T02:27:12.053Z,2.30
2017-03-27T02:28:00.055Z,2.27
2017-03-27T02:28:49.038Z,2.26
2017-03-27T02:29:37.137Z,2.24
2017-03-27T02:30:25.145Z,2.24
2017-03-27T02:31:26.147Z,2.30
2017-03-27T02:32:26.260Z,2.30
2017-03-27T02:33:26.279Z,2.35
2017-03-27T02:34:20.266Z,2.40
2017-03-27T02:35:20.221Z,2.44
2017-03-27T02:36:15.330Z,2.47
2017-03-27T02:37:10.345Z,2.48
2017-03-27T02:38:10.364Z,2.48
2017-03-27T02:39:05.336Z,2.54
2017-03-27T02:40:00.449Z,2.55
2017-03-27T02:41:00.471Z,2.58
2017-03-27T02:41:55.488Z,2.62
2017-03-27T02:42:55.460Z,2.64
2017-03-27T02:43:49.504Z,2.80
2017-03-27T02:44:49.484Z,2.89
2017-03-27T02:45:43.597Z,2.98
2017-03-27T02:46:49.567Z,3.04
2017-03-27T02:47:49.611Z,3.02
2017-03-27T02:48:44.663Z,3.00
2017-03-27T02:49:38.699Z,2.98
2017-03-27T02:50:39.712Z,2.90
2017-03-27T02:51:39.718Z,2.86
2017-03-27T02:52:34.803Z,2.82
2017-03-27T02:53:34.793Z,2.80
2017-03-27T02:54:28.821Z,2.78
2017-03-27T02:55:28.863Z,2.81
2017-03-27T02:56:23.863Z,2.80
2017-03-27T02:57:18.901Z,2.80
2017-03-27T02:58:19.939Z,2.74
2017-03-27T02:59:20.886Z,2.66
2017-03-27T03:00:15.969Z,2.62
2017-03-27T03:01:10.058Z,2.65
2017-03-27T03:02:10.034Z,2.63
2017-03-27T03:02:59.066Z,2.60
2017-03-27T03:03:47.095Z,2.55
2017-03-27T03:04:48.159Z,2.54
2017-03-27T03:05:42.162Z,2.50
2017-03-27T03:06:42.192Z,2.50
2017-03-27T03:07:37.236Z,2.51
2017-03-27T03:08:32.252Z,2.45
2017-03-27T03:09:38.252Z,2.43
2017-03-27T03:10:32.291Z,2.42
2017-03-27T03:11:27.337Z,2.45
2017-03-27T03:12:22.411Z,2.49
2017-03-27T03:13:11.410Z,2.50
2017-03-27T03:14:00.419Z,2.48
2017-03-27T03:15:06.425Z,2.45
2017-03-27T03:16:01.465Z,2.45
2017-03-27T03:16:55.443Z,2.53
2017-03-27T03:17:55.543Z,2.59
2017-03-27T03:18:49.540Z,2.66
2017-03-27T03:19:49.636Z,2.72
2017-03-27T03:20:49.711Z,2.86
2017-03-27T03:21:43.647Z,2.92
2017-03-27T03:22:32.699Z,2.90
2017-03-27T03:23:20.733Z,2.86
2017-03-27T03:24:08.763Z,2.85
2017-03-27T03:24:57.746Z,2.86
2017-03-27T03:25:51.797Z,2.88
2017-03-27T03:26:51.848Z,2.86
2017-03-27T03:27:45.865Z,2.88
2017-03-27T03:28:33.963Z,2.87
2017-03-27T03:29:21.978Z,2.79
2017-03-27T03:30:09.915Z,2.74
2017-03-27T03:31:09.975Z,2.66
2017-03-27T03:31:58.027Z,2.59
2017-03-27T03:32:46.020Z,2.51
2017-03-27T03:33:34.317Z,2.48
2017-03-27T03:34:23.157Z,2.44
2017-03-27T03:35:12.195Z,2.40
2017-03-27T03:36:01.228Z,2.34
2017-03-27T03:36:50.223Z,2.33
2017-03-27T03:37:38.272Z,2.34
2017-03-27T03:38:32.266Z,2.34
2017-03-27T03:39:27.351Z,2.32
2017-03-27T03:40:28.373Z,2.32
2017-03-27T03:41:28.379Z,2.36
2017-03-27T03:42:28.435Z,2.62
2017-03-27T03:43:23.488Z,2.77
2017-03-27T03:44:12.478Z,2.83
2017-03-27T03:45:07.523Z,2.90
2017-03-27T03:45:56.527Z,2.92
2017-03-27T03:46:50.576Z,2.89
2017-03-27T03:47:45.606Z,2.81
2017-03-27T03:48:33.646Z,2.73
2017-03-27T03:49:22.657Z,2.70
2017-03-27T03:50:11.700Z,2.64
2017-03-27T03:50:59.811Z,2.60
2017-03-27T03:51:48.792Z,2.54
2017-03-27T03:52:36.845Z,2.50
2017-03-27T03:53:24.910Z,2.48
2017-03-27T03:54:13.898Z,2.54
2017-03-27T03:55:02.021Z,2.48
2017-03-27T03:55:51.097Z,2.49
2017-03-27T03:56:45.013Z,2.48
2017-03-27T03:57:40.048Z,2.46
2017-03-27T03:58:35.109Z,2.45
2017-03-27T03:59:36.060Z,2.38
2017-03-27T04:00:31.122Z,2.51
2017-03-27T04:01:25.172Z,2.56
2017-03-27T04:02:13.202Z,2.52
2017-03-27T04:03:01.237Z,2.45
2017-03-27T04:03:50.244Z,2.39
2017-03-27T04:04:44.243Z,2.32
2017-03-27T04:05:39.315Z,2.27
2017-03-27T04:06:39.326Z,2.28
2017-03-27T04:07:39.420Z,2.19
2017-03-27T04:08:33.408Z,2.24
2017-03-27T04:09:28.392Z,2.38
2017-03-27T04:10:28.499Z,2.36
2017-03-27T04:11:22.497Z,2.34
2017-03-27T04:12:11.530Z,2.30
2017-03-27T04:13:00.565Z,2.27
2017-03-27T04:13:48.539Z,2.26
2017-03-27T04:14:36.624Z,2.26
2017-03-27T04:15:25.630Z,2.22
2017-03-27T04:16:25.670Z,2.23
2017-03-27T04:17:19.734Z,2.22
2017-03-27T04:18:19.777Z,2.18
2017-03-27T04:19:15.039Z,2.14
2017-03-27T04:20:09.790Z,2.10
2017-03-27T04:21:10.794Z,1.99
2017-03-27T04:22:10.833Z,1.90
2017-03-27T04:23:10.961Z,1.83
2017-03-27T04:24:10.936Z,1.84
2017-03-27T04:24:59.864Z,1.82
2017-03-27T04:25:54.982Z,1.82
2017-03-27T04:26:49.951Z,1.92
2017-03-27T04:27:45.073Z,1.98
2017-03-27T04:28:39.051Z,2.02
2017-03-27T04:29:34.063Z,2.12
2017-03-27T04:30:29.019Z,2.22
2017-03-27T04:31:29.379Z,2.56
2017-03-27T04:32:24.168Z,2.68
2017-03-27T04:33:19.166Z,2.66
2017-03-27T04:34:13.206Z,2.68
2017-03-27T04:35:08.265Z,2.64
2017-03-27T04:36:02.270Z,2.60
2017-03-27T04:37:02.277Z,2.68
2017-03-27T04:37:57.297Z,2.74
2017-03-27T04:38:57.361Z,2.74
2017-03-27T04:39:51.351Z,2.78
2017-03-27T04:40:51.438Z,2.85
2017-03-27T04:41:46.415Z,2.96
2017-03-27T04:42:40.452Z,3.16
2017-03-27T04:43:40.448Z,3.20
2017-03-27T04:44:34.504Z,3.20
2017-03-27T04:45:29.556Z,3.20
2017-03-27T04:46:23.562Z,3.18
2017-03-27T04:47:23.609Z,3.22
2017-03-27T04:48:18.649Z,3.24
2017-03-27T04:49:13.636Z,3.28
2017-03-27T04:50:14.644Z,3.26
2017-03-27T04:51:14.669Z,3.22
2017-03-27T04:52:14.765Z,3.17
2017-03-27T04:53:14.783Z,3.12
2017-03-27T04:54:09.777Z,3.06
2017-03-27T04:55:04.111Z,3.00
2017-03-27T04:55:57.849Z,2.95
2017-03-27T04:56:57.868Z,2.89
2017-03-27T04:57:47.004Z,2.85
2017-03-27T04:58:40.922Z,2.75
2017-03-27T04:59:35.919Z,2.72
2017-03-27T05:00:25.020Z,2.66
2017-03-27T05:01:13.017Z,2.58
2017-03-27T05:02:14.049Z,2.60
2017-03-27T05:03:14.097Z,2.60
2017-03-27T05:04:14.129Z,2.58
2017-03-27T05:05:14.122Z,2.57
2017-03-27T05:06:14.141Z,2.59
2017-03-27T05:07:14.169Z,2.66
2017-03-27T05:08:14.217Z,2.70
2017-03-27T05:09:14.267Z,2.72
2017-03-27T05:10:14.281Z,2.72
2017-03-27T05:11:14.262Z,2.76
2017-03-27T05:12:14.273Z,2.76
2017-03-27T05:13:14.333Z,2.81
2017-03-27T05:14:09.416Z,2.92
2017-03-27T05:14:58.443Z,2.95
2017-03-27T05:16:04.545Z,2.86
2017-03-27T05:16:59.459Z,2.93
2017-03-27T05:17:53.494Z,2.94
2017-03-27T05:18:48.632Z,2.94
2017-03-27T05:19:48.503Z,2.89
2017-03-27T05:20:48.549Z,2.96
2017-03-27T05:21:43.662Z,3.00
2017-03-27T05:22:32.651Z,3.05
2017-03-27T05:23:21.713Z,3.08
2017-03-27T05:24:16.810Z,3.18
2017-03-27T05:25:11.120Z,3.18
2017-03-27T05:25:58.784Z,3.22
2017-03-27T05:26:52.764Z,3.24
2017-03-27T05:27:52.817Z,3.17
2017-03-27T05:28:47.871Z,3.21
2017-03-27T05:29:35.896Z,3.08
2017-03-27T05:30:35.919Z,3.10
2017-03-27T05:31:25.187Z,3.06
2017-03-27T05:32:13.936Z,3.00
2017-03-27T05:33:08.996Z,2.96
2017-03-27T05:34:09.248Z,2.98
2017-03-27T05:35:04.050Z,2.90
2017-03-27T05:35:59.095Z,2.92
2017-03-27T05:36:53.163Z,2.82
2017-03-27T05:37:53.202Z,2.78
2017-03-27T05:38:48.209Z,2.86
2017-03-27T05:39:42.251Z,2.84
2017-03-27T05:40:42.607Z,2.84
2017-03-27T05:41:36.317Z,2.84
2017-03-27T05:42:36.311Z,2.96
2017-03-27T05:43:31.332Z,3.00
2017-03-27T05:44:26.460Z,3.01
2017-03-27T05:45:26.359Z,3.08
2017-03-27T05:46:20.363Z,3.10
2017-03-27T05:47:14.502Z,3.18
2017-03-27T05:48:15.923Z,3.36
2017-03-27T05:49:15.975Z,3.42
2017-03-27T05:50:16.035Z,3.52
2017-03-27T05:51:15.852Z,3.53
2017-03-27T05:52:21.542Z,3.55
2017-03-27T05:53:17.014Z,3.52
2017-03-27T05:54:10.621Z,3.47
2017-03-27T05:55:10.673Z,3.48
2017-03-27T05:56:05.688Z,3.50
2017-03-27T05:57:00.791Z,3.64
2017-03-27T05:58:00.780Z,3.90
2017-03-27T05:58:55.826Z,4.11
2017-03-27T05:59:49.788Z,4.35
2017-03-27T06:00:49.837Z,4.66
2017-03-27T06:01:43.844Z,4.91
2017-03-27T06:02:44.996Z,5.20
2017-03-27T06:03:46.020Z,5.44
2017-03-27T06:04:41.231Z,5.62
2017-03-27T06:05:41.015Z,5.79
2017-03-27T06:06:41.011Z,5.93
2017-03-27T06:07:41.038Z,6.18
2017-03-27T06:08:41.081Z,6.27
2017-03-27T06:09:41.395Z,6.13
2017-03-27T06:10:41.146Z,6.12
2017-03-27T06:11:41.115Z,6.16
2017-03-27T06:12:36.219Z,6.18
2017-03-27T06:13:31.228Z,6.30
2017-03-27T06:14:25.255Z,6.30
2017-03-27T06:15:19.609Z,6.42
2017-03-27T06:16:19.721Z,6.54
2017-03-27T06:17:14.369Z,6.72
2017-03-27T06:18:08.404Z,6.88
2017-03-27T06:19:03.452Z,7.12
2017-03-27T06:19:58.475Z,7.26
2017-03-27T06:20:47.532Z,7.40
2017-03-27T06:21:41.601Z,7.48
2017-03-27T06:22:41.573Z,7.39
2017-03-27T06:23:35.569Z,7.54
2017-03-27T06:24:35.657Z,7.75
2017-03-27T06:25:30.759Z,7.70
2017-03-27T06:26:24.710Z,7.68
2017-03-27T06:27:24.694Z,7.86
2017-03-27T06:28:18.762Z,7.98
2017-03-27T06:29:18.799Z,7.90
2017-03-27T06:30:07.851Z,8.36
2017-03-27T06:31:01.943Z,8.24
2017-03-27T06:32:02.030Z,8.36
2017-03-27T06:32:57.186Z,8.42
2017-03-27T06:33:51.965Z,8.66
2017-03-27T06:34:52.084Z,8.83
2017-03-27T06:35:47.045Z,8.88
2017-03-27T06:36:42.204Z,8.91
2017-03-27T06:37:36.171Z,9.04
2017-03-27T06:38:36.295Z,9.08
2017-03-27T06:39:31.158Z,8.94
2017-03-27T06:40:25.335Z,9.08
2017-03-27T06:41:25.279Z,9.34
2017-03-27T06:42:19.293Z,9.47
2017-03-27T06:43:19.427Z,9.62
2017-03-27T06:44:14.370Z,9.78
2017-03-27T06:45:08.473Z,9.78
2017-03-27T06:46:03.419Z,9.99
2017-03-27T06:46:58.932Z,10.20
2017-03-27T06:47:52.561Z,10.36
2017-03-27T06:48:52.569Z,10.32
2017-03-27T06:49:46.631Z,10.49
2017-03-27T06:50:47.641Z,10.73
2017-03-27T06:51:48.686Z,10.66
2017-03-27T06:52:49.714Z,10.45
2017-03-27T06:53:43.772Z,10.29
2017-03-27T06:54:43.811Z,10.06
2017-03-27T06:55:39.042Z,10.10
2017-03-27T06:56:33.824Z,9.88
2017-03-27T06:57:27.924Z,10.08
2017-03-27T06:58:27.961Z,10.13
2017-03-27T06:59:21.998Z,10.30
2017-03-27T07:00:23.034Z,10.33
2017-03-27T07:01:24.065Z,10.22
2017-03-27T07:02:24.089Z,10.26
2017-03-27T07:03:19.152Z,10.45
2017-03-27T07:04:19.171Z,10.47
2017-03-27T07:05:13.227Z,10.34
2017-03-27T07:06:13.353Z,10.72
2017-03-27T07:07:13.272Z,10.90
2017-03-27T07:08:19.368Z,11.07
2017-03-27T07:09:14.387Z,11.20
2017-03-27T07:10:09.360Z,11.48
2017-03-27T07:11:03.787Z,11.34
2017-03-27T07:12:03.801Z,11.64
2017-03-27T07:12:57.751Z,11.58
2017-03-27T07:13:57.544Z,11.50
2017-03-27T07:14:51.592Z,11.31
2017-03-27T07:15:51.667Z,11.38
2017-03-27T07:16:45.685Z,11.30
2017-03-27T07:17:45.728Z,11.11
2017-03-27T07:18:41.083Z,10.72
2017-03-27T07:19:36.280Z,10.56
2017-03-27T07:20:29.879Z,10.66
2017-03-27T07:21:29.948Z,10.46
2017-03-27T07:22:24.942Z,10.53
2017-03-27T07:23:19.983Z,10.76
2017-03-27T07:24:15.298Z,10.76
2017-03-27T07:25:16.041Z,10.91
2017-03-27T07:26:16.091Z,10.77
2017-03-27T07:27:05.254Z,11.02
2017-03-27T07:28:05.183Z,11.46
2017-03-27T07:29:00.242Z,11.72
2017-03-27T07:30:00.551Z,11.69
2017-03-27T07:30:55.296Z,11.94
2017-03-27T07:31:50.310Z,11.96
2017-03-27T07:32:50.432Z,12.56
2017-03-27T07:33:45.447Z,12.83
2017-03-27T07:34:39.757Z,13.43
2017-03-27T07:35:39.872Z,13.30
2017-03-27T07:36:33.565Z,13.24
2017-03-27T07:37:33.575Z,12.93
2017-03-27T07:38:28.659Z,13.32
2017-03-27T07:39:28.660Z,13.18
2017-03-27T07:40:23.732Z,13.29
2017-03-27T07:41:18.778Z,12.98
2017-03-27T07:42:13.133Z,12.82
2017-03-27T07:43:13.253Z,13.08
2017-03-27T07:44:07.908Z,13.32
2017-03-27T07:45:02.919Z,13.69
2017-03-27T07:45:57.953Z,14.15
2017-03-27T07:46:59.050Z,13.93
2017-03-27T07:48:00.058Z,13.13
2017-03-27T07:48:49.149Z,13.44
2017-03-27T07:49:44.439Z,13.71
2017-03-27T07:50:38.174Z,13.58
2017-03-27T07:51:38.253Z,13.08
2017-03-27T07:52:33.255Z,13.14
2017-03-27T07:53:28.333Z,13.10
2017-03-27T07:54:28.355Z,13.16
2017-03-27T07:55:22.414Z,12.98
2017-03-27T07:56:22.449Z,13.14
2017-03-27T07:57:17.469Z,12.99
2017-03-27T07:58:11.512Z,13.13
2017-03-27T07:59:11.586Z,13.02
2017-03-27T08:00:06.629Z,13.08
2017-03-27T08:01:01.703Z,12.98
2017-03-27T08:01:50.656Z,12.90
2017-03-27T08:02:46.534Z,12.96
2017-03-27T08:03:46.090Z,12.88
2017-03-27T08:04:40.845Z,12.81
2017-03-27T08:05:34.877Z,13.06
2017-03-27T08:06:28.928Z,13.52
2017-03-27T08:07:23.943Z,13.62
2017-03-27T08:08:13.356Z,14.31
2017-03-27T08:09:01.111Z,15.14
2017-03-27T08:09:55.122Z,15.97
2017-03-27T08:10:49.441Z,16.65
2017-03-27T08:11:50.466Z,16.47
2017-03-27T08:12:44.426Z,16.08
2017-03-27T08:13:38.544Z,16.08
2017-03-27T08:14:38.362Z,15.18
2017-03-27T08:15:33.419Z,14.57
2017-03-27T08:16:28.583Z,14.37
2017-03-27T08:17:28.749Z,14.46
2017-03-27T08:18:22.931Z,14.14
2017-03-27T08:19:18.004Z,13.86
2017-03-27T08:20:18.127Z,13.55
2017-03-27T08:21:11.708Z,13.53
2017-03-27T08:22:05.746Z,12.96
2017-03-27T08:23:05.794Z,13.23
2017-03-27T08:23:59.794Z,13.68
2017-03-27T08:24:54.113Z,13.90
2017-03-27T08:25:47.955Z,14.24
2017-03-27T08:26:47.959Z,14.76
2017-03-27T08:27:43.028Z,15.10
2017-03-27T08:28:38.051Z,15.29
2017-03-27T08:29:38.152Z,15.40
2017-03-27T08:30:32.165Z,15.02
2017-03-27T08:31:32.212Z,15.16
2017-03-27T08:32:27.251Z,14.80
2017-03-27T08:33:21.426Z,14.98
2017-03-27T08:34:21.361Z,15.10
2017-03-27T08:35:17.486Z,14.63
2017-03-27T08:36:05.736Z,14.59
2017-03-27T08:37:00.516Z,14.72
2017-03-27T08:37:48.719Z,14.70
2017-03-27T08:38:48.577Z,14.62
2017-03-27T08:39:43.648Z,14.84
2017-03-27T08:40:38.702Z,15.11
2017-03-27T08:41:39.017Z,15.48
2017-03-27T08:42:33.828Z,15.62
2017-03-27T08:43:28.817Z,15.07
2017-03-27T08:44:22.903Z,14.70
2017-03-27T08:45:22.915Z,14.89
2017-03-27T08:46:17.970Z,14.96
2017-03-27T08:47:13.339Z,14.88
2017-03-27T08:48:13.074Z,14.84
2017-03-27T08:49:08.122Z,15.28
2017-03-27T08:50:02.174Z,15.36
2017-03-27T08:50:56.547Z,14.97
2017-03-27T08:51:50.277Z,15.01
2017-03-27T08:52:51.631Z,15.62
2017-03-27T08:53:51.405Z,15.80
2017-03-27T08:54:51.469Z,16.22
2017-03-27T08:55:45.449Z,16.60
2017-03-27T08:56:45.548Z,15.91
2017-03-27T08:57:39.556Z,15.76
2017-03-27T08:58:33.565Z,15.58
2017-03-27T08:59:33.642Z,15.42
2017-03-27T09:00:28.982Z,15.80
2017-03-27T09:01:29.997Z,16.27
2017-03-27T09:02:30.301Z,16.21
2017-03-27T09:03:23.835Z,16.54
2017-03-27T09:04:24.196Z,16.78
2017-03-27T09:05:18.956Z,16.87
2017-03-27T09:06:07.992Z,16.80
2017-03-27T09:07:02.999Z,16.62
2017-03-27T09:08:03.106Z,17.16
2017-03-27T09:08:58.309Z,17.46
2017-03-27T09:09:52.611Z,16.98
2017-03-27T09:10:47.249Z,17.40
2017-03-27T09:11:47.282Z,17.63
2017-03-27T09:12:42.355Z,17.92
2017-03-27T09:13:36.355Z,18.33
2017-03-27T09:14:30.623Z,18.66
2017-03-27T09:15:30.807Z,19.17
2017-03-27T09:16:25.535Z,19.00
2017-03-27T09:17:19.775Z,18.90
2017-03-27T09:18:19.723Z,17.64
2017-03-27T09:19:14.698Z,17.07
2017-03-27T09:20:09.724Z,17.02
2017-03-27T09:21:04.091Z,17.13
2017-03-27T09:22:04.123Z,17.32
2017-03-27T09:22:59.165Z,17.44
2017-03-27T09:23:54.016Z,16.84
2017-03-27T09:24:49.010Z,16.52
2017-03-27T09:25:55.039Z,17.16
2017-03-27T09:26:50.122Z,17.49
2017-03-27T09:27:50.266Z,17.52
2017-03-27T09:28:50.180Z,18.03
2017-03-27T09:29:44.257Z,17.87
2017-03-27T09:30:44.281Z,18.08
2017-03-27T09:31:38.628Z,17.60
2017-03-27T09:32:38.707Z,16.75
2017-03-27T09:33:33.456Z,16.27
2017-03-27T09:34:33.528Z,15.97
2017-03-27T09:35:27.558Z,16.34
2017-03-27T09:36:27.591Z,16.76
2017-03-27T09:37:22.646Z,16.65
2017-03-27T09:38:18.041Z,16.97
2017-03-27T09:39:07.017Z,17.22
2017-03-27T09:40:01.918Z,17.78
2017-03-27T09:41:01.834Z,17.97
2017-03-27T09:41:57.034Z,17.46
2017-03-27T09:42:51.054Z,17.04
2017-03-27T09:43:51.317Z,17.07
2017-03-27T09:44:45.094Z,17.33
2017-03-27T09:45:39.410Z,17.89
2017-03-27T09:46:34.241Z,18.45
2017-03-27T09:47:34.225Z,18.62
2017-03-27T09:48:34.361Z,18.34
2017-03-27T09:49:34.661Z,18.60
2017-03-27T09:50:22.429Z,18.86
2017-03-27T09:51:17.442Z,18.97
2017-03-27T09:52:11.777Z,18.10
2017-03-27T09:53:00.569Z,17.81
2017-03-27T09:53:55.623Z,18.00
2017-03-27T09:54:55.659Z,17.27
2017-03-27T09:55:44.638Z,17.02
2017-03-27T09:56:38.744Z,17.04
2017-03-27T09:57:38.829Z,17.50
2017-03-27T09:58:33.072Z,17.30
2017-03-27T09:59:32.940Z,17.43
2017-03-27T10:00:28.035Z,17.80
2017-03-27T10:01:22.293Z,17.73
2017-03-27T10:02:22.027Z,17.52
2017-03-27T10:03:17.113Z,17.06
2017-03-27T10:04:12.637Z,17.56
2017-03-27T10:05:06.231Z,17.95
2017-03-27T10:06:01.354Z,18.17
2017-03-27T10:07:01.322Z,17.85
2017-03-27T10:08:01.353Z,17.84
2017-03-27T10:09:01.408Z,18.10
2017-03-27T10:10:01.506Z,18.55
2017-03-27T10:10:55.563Z,18.53
2017-03-27T10:11:55.823Z,18.11
2017-03-27T10:12:50.693Z,17.93
2017-03-27T10:13:45.970Z,17.82
2017-03-27T10:14:39.727Z,18.19
2017-03-27T10:15:40.746Z,18.86
2017-03-27T10:16:35.829Z,19.09
2017-03-27T10:17:36.133Z,18.94
2017-03-27T10:18:30.934Z,18.10
2017-03-27T10:19:25.929Z,17.99
2017-03-27T10:20:26.999Z,18.36
2017-03-27T10:21:27.039Z,18.99
2017-03-27T10:22:21.071Z,19.07
2017-03-27T10:23:21.160Z,19.45
2017-03-27T10:24:15.344Z,19.68
2017-03-27T10:25:15.243Z,19.84
2017-03-27T10:26:10.299Z,19.42
2017-03-27T10:27:04.336Z,19.28
2017-03-27T10:27:59.405Z,19.66
2017-03-27T10:28:47.759Z,19.79
2017-03-27T10:29:41.553Z,20.20
2017-03-27T10:30:36.691Z,20.82
2017-03-27T10:31:36.622Z,20.64
2017-03-27T10:32:31.704Z,20.76
2017-03-27T10:33:31.712Z,20.50
2017-03-27T10:34:27.130Z,19.55
2017-03-27T10:35:21.789Z,19.14
2017-03-27T10:36:21.960Z,18.91
2017-03-27T10:37:15.962Z,18.40
2017-03-27T10:38:16.006Z,18.80
2017-03-27T10:39:16.004Z,18.83
2017-03-27T10:40:10.068Z,18.99
2017-03-27T10:41:10.141Z,18.79
2017-03-27T10:42:05.119Z,18.90
2017-03-27T10:43:05.223Z,19.01
2017-03-27T10:44:00.241Z,19.04
2017-03-27T10:44:55.270Z,19.06
2017-03-27T10:45:44.652Z,19.05
2017-03-27T10:46:44.421Z,19.21
2017-03-27T10:47:44.458Z,19.28
2017-03-27T10:48:39.512Z,19.68
2017-03-27T10:49:39.541Z,19.88
2017-03-27T10:50:34.613Z,20.48
2017-03-27T10:51:29.001Z,20.65
2017-03-27T10:52:28.696Z,20.56
2017-03-27T10:53:23.048Z,20.36
2017-03-27T10:54:23.044Z,20.29
2017-03-27T10:55:17.822Z,19.09
2017-03-27T10:56:11.871Z,18.56
2017-03-27T10:57:12.201Z,18.43
2017-03-27T10:58:06.013Z,17.96
2017-03-27T10:59:06.042Z,18.20
2017-03-27T11:00:01.177Z,17.86
2017-03-27T11:00:55.421Z,17.93
2017-03-27T11:01:50.208Z,18.03
2017-03-27T11:02:45.561Z,18.14
2017-03-27T11:03:39.296Z,18.90
2017-03-27T11:04:39.322Z,19.37
2017-03-27T11:05:34.406Z,19.69
2017-03-27T11:06:28.590Z,19.90
2017-03-27T11:07:17.498Z,20.04
2017-03-27T11:08:17.822Z,20.38
2017-03-27T11:09:11.609Z,20.24
2017-03-27T11:10:06.703Z,20.84
2017-03-27T11:11:06.776Z,20.30
2017-03-27T11:12:01.767Z,19.89
2017-03-27T11:12:57.172Z,19.12
2017-03-27T11:13:57.141Z,19.15
2017-03-27T11:14:51.964Z,19.05
2017-03-27T11:15:46.979Z,19.32
2017-03-27T11:16:41.022Z,19.64
2017-03-27T11:17:35.101Z,20.23
2017-03-27T11:18:30.424Z,20.84
2017-03-27T11:19:24.144Z,21.47
2017-03-27T11:20:19.323Z,21.63
2017-03-27T11:21:13.230Z,21.88
2017-03-27T11:22:02.484Z,22.30
2017-03-27T11:22:56.388Z,22.28
2017-03-27T11:23:56.441Z,22.11
2017-03-27T11:24:50.544Z,22.07
2017-03-27T11:25:50.614Z,20.85
2017-03-27T11:26:44.596Z,20.24
2017-03-27T11:27:44.835Z,19.72
2017-03-27T11:28:33.091Z,19.20
2017-03-27T11:29:33.014Z,19.42
2017-03-27T11:30:27.053Z,19.73
2017-03-27T11:31:27.797Z,19.64
2017-03-27T11:32:27.949Z,19.12
2017-03-27T11:33:22.921Z,18.90
2017-03-27T11:34:17.193Z,18.83
2017-03-27T11:35:17.009Z,18.72
2017-03-27T11:36:12.077Z,19.40
2017-03-27T11:37:06.165Z,20.21
2017-03-27T11:37:55.160Z,20.87
2017-03-27T11:38:44.228Z,21.62
2017-03-27T11:39:33.570Z,22.07
2017-03-27T11:40:28.369Z,21.34
2017-03-27T11:41:23.695Z,20.60
2017-03-27T11:42:23.522Z,20.76
2017-03-27T11:43:18.507Z,20.74
2017-03-27T11:44:13.556Z,20.66
2017-03-27T11:45:01.692Z,20.97
2017-03-27T11:46:01.943Z,21.38
2017-03-27T11:47:01.989Z,21.19
2017-03-27T11:47:49.746Z,21.25
2017-03-27T11:48:44.844Z,21.44
2017-03-27T11:49:38.839Z,21.50
2017-03-27T11:50:32.937Z,21.79
2017-03-27T11:51:27.028Z,22.01
2017-03-27T11:52:28.072Z,22.09
2017-03-27T11:53:22.054Z,22.05
2017-03-27T11:54:22.115Z,21.95
2017-03-27T11:55:17.168Z,20.84
2017-03-27T11:56:12.189Z,20.48
2017-03-27T11:57:06.602Z,20.03
2017-03-27T11:58:06.984Z,19.82
2017-03-27T11:59:01.694Z,19.82
2017-03-27T11:59:56.487Z,19.06
2017-03-27T12:00:50.531Z,18.56
2017-03-27T12:01:50.570Z,18.60
2017-03-27T12:02:50.558Z,19.12
2017-03-27T12:03:50.636Z,19.17
2017-03-27T12:04:44.789Z,19.35
2017-03-27T12:05:44.798Z,19.70
2017-03-27T12:06:40.319Z,20.00
2017-03-27T12:07:35.035Z,19.99
2017-03-27T12:08:41.465Z,20.16
2017-03-27T12:09:35.040Z,19.92
2017-03-27T12:10:35.026Z,19.58